createdAt,value
2016-03-19T00:00:01.623Z,48
2016-03-19T00:00:14.876Z,48
2016-03-19T00:00:28.314Z,48
2016-03-19T00:00:41.579Z,48
2016-03-19T00:00:54.782Z,48
2016-03-19T00:02:01.535Z,48
2016-03-19T00:02:14.897Z,48
2016-03-19T00:09:26.385Z,48
2016-03-19T00:09:39.697Z,49
2016-03-19T00:09:52.978Z,49
2016-03-19T00:11:06.309Z,49
2016-03-19T00:11:19.765Z,49
2016-03-19T00:11:32.983Z,49
2016-03-19T00:12:44.330Z,49
2016-03-19T00:12:57.674Z,49
2016-03-19T00:13:11.080Z,49
2016-03-19T00:13:24.333Z,50
2016-03-19T00:13:37.724Z,50
2016-03-19T00:13:51.208Z,50
2016-03-19T00:14:04.411Z,50
2016-03-19T00:14:17.710Z,50
2016-03-19T00:14:31.632Z,50
2016-03-19T00:14:44.929Z,49
2016-03-19T00:14:58.179Z,49
2016-03-19T00:15:11.585Z,49
2016-03-19T00:15:24.916Z,50
2016-03-19T00:16:34.279Z,50
2016-03-19T00:16:47.607Z,50
2016-03-19T00:17:01.091Z,50
2016-03-19T00:17:14.341Z,50
2016-03-19T00:17:27.656Z,50
2016-03-19T00:18:38.972Z,50
2016-03-19T00:18:52.300Z,50
2016-03-19T00:19:05.628Z,50
2016-03-19T00:19:19.068Z,50
2016-03-19T00:19:32.396Z,50
2016-03-19T00:19:45.630Z,50
2016-03-19T00:19:59.083Z,50
2016-03-19T00:20:12.396Z,50
2016-03-19T00:20:25.758Z,50
2016-03-19T00:20:39.180Z,50
2016-03-19T00:20:52.930Z,50
2016-03-19T00:21:06.368Z,50
2016-03-19T00:21:20.245Z,50
2016-03-19T00:21:33.557Z,50
2016-03-19T00:21:46.979Z,50
2016-03-19T00:22:00.713Z,50
2016-03-19T00:22:14.010Z,50
2016-03-19T00:22:27.295Z,50
2016-03-19T00:22:40.685Z,51
2016-03-19T00:22:54.029Z,51
2016-03-19T00:23:07.388Z,50
2016-03-19T00:23:20.923Z,50
2016-03-19T00:23:35.001Z,51
2016-03-19T00:23:48.376Z,51
2016-03-19T00:24:01.626Z,51
2016-03-19T00:24:15.016Z,51
2016-03-19T00:24:28.363Z,51
2016-03-19T00:24:42.222Z,51
2016-03-19T00:24:55.519Z,51
2016-03-19T00:25:08.957Z,51
2016-03-19T00:25:22.146Z,51
2016-03-19T00:25:35.459Z,51
2016-03-19T00:25:48.771Z,51
2016-03-19T00:26:02.146Z,51
2016-03-19T00:26:15.474Z,51
2016-03-19T00:26:28.712Z,51
2016-03-19T00:26:42.477Z,51
2016-03-19T00:26:55.946Z,51
2016-03-19T00:27:09.290Z,51
2016-03-19T00:27:23.137Z,51
2016-03-19T00:27:37.121Z,51
2016-03-19T00:28:44.264Z,51
2016-03-19T00:28:57.592Z,51
2016-03-19T00:29:10.982Z,51
2016-03-19T00:29:24.282Z,51
2016-03-19T00:29:37.720Z,51
2016-03-19T00:29:51.064Z,51
2016-03-19T00:30:05.204Z,51
2016-03-19T00:30:18.613Z,51
2016-03-19T00:30:32.113Z,51
2016-03-19T00:30:45.410Z,51
2016-03-19T00:30:58.801Z,51
2016-03-19T00:31:12.473Z,51
2016-03-19T00:31:25.648Z,51
2016-03-19T00:32:36.290Z,51
2016-03-19T00:32:49.759Z,52
2016-03-19T00:33:02.978Z,52
2016-03-19T00:40:14.434Z,53
2016-03-19T00:40:27.703Z,52
2016-03-19T00:40:41.125Z,52
2016-03-19T00:41:54.674Z,53
2016-03-19T00:42:08.033Z,53
2016-03-19T00:43:19.083Z,53
2016-03-19T00:43:32.288Z,53
2016-03-19T00:43:45.554Z,53
2016-03-19T00:43:58.960Z,53
2016-03-19T00:44:12.226Z,53
2016-03-19T00:44:25.605Z,53
2016-03-19T00:44:38.995Z,53
2016-03-19T00:44:52.261Z,53
2016-03-19T00:45:05.620Z,53
2016-03-19T00:45:19.042Z,53
2016-03-19T00:45:32.311Z,53
2016-03-19T00:45:45.686Z,53
2016-03-19T00:45:59.076Z,53
2016-03-19T00:47:08.969Z,53
2016-03-19T00:47:22.316Z,53
2016-03-19T00:47:35.722Z,53
2016-03-19T00:47:48.972Z,53
2016-03-19T00:48:02.284Z,53
2016-03-19T00:49:13.536Z,53
2016-03-19T00:49:26.852Z,53
2016-03-19T00:49:40.196Z,53
2016-03-19T00:49:53.461Z,53
2016-03-19T00:50:06.805Z,53
2016-03-19T00:50:20.227Z,53
2016-03-19T00:50:33.417Z,53
2016-03-19T00:50:46.761Z,54
2016-03-19T00:51:00.167Z,53
2016-03-19T00:51:13.417Z,53
2016-03-19T00:51:26.764Z,53
2016-03-19T00:51:40.295Z,53
2016-03-19T00:51:53.592Z,53
2016-03-19T00:52:06.827Z,53
2016-03-19T00:52:20.327Z,53
2016-03-19T00:52:33.751Z,53
2016-03-19T00:52:46.969Z,53
2016-03-19T00:53:00.219Z,53
2016-03-19T00:53:13.626Z,53
2016-03-19T00:53:26.988Z,54
2016-03-19T00:53:40.316Z,54
2016-03-19T00:53:53.722Z,54
2016-03-19T00:54:07.066Z,54
2016-03-19T00:54:20.379Z,54
2016-03-19T00:54:33.757Z,54
2016-03-19T00:54:47.257Z,54
2016-03-19T00:55:00.507Z,54
2016-03-19T00:55:13.850Z,54
2016-03-19T00:55:27.071Z,54
2016-03-19T00:55:40.524Z,54
2016-03-19T00:55:53.915Z,54
2016-03-19T00:56:08.290Z,54
2016-03-19T00:56:21.683Z,54
2016-03-19T00:56:35.480Z,54
2016-03-19T00:56:48.808Z,54
2016-03-19T00:57:02.902Z,54
2016-03-19T00:58:09.030Z,54
2016-03-19T00:58:22.376Z,54
2016-03-19T00:58:35.767Z,54
2016-03-19T00:58:49.548Z,54
2016-03-19T00:59:02.782Z,54
2016-03-19T00:59:16.188Z,54
2016-03-19T00:59:29.551Z,54
2016-03-19T00:59:42.754Z,54
2016-03-19T00:59:56.160Z,54
2016-03-19T01:00:09.770Z,54
2016-03-19T01:00:23.679Z,54
2016-03-19T01:00:37.101Z,54
2016-03-19T01:00:50.585Z,54
2016-03-19T01:01:03.835Z,54
2016-03-19T01:01:17.304Z,54
2016-03-19T01:01:30.775Z,54
2016-03-19T01:01:47.446Z,54
2016-03-19T01:02:00.743Z,54
2016-03-19T01:02:13.978Z,54
2016-03-19T01:03:24.561Z,54
2016-03-19T01:03:38.201Z,54
2016-03-19T01:10:49.053Z,54
2016-03-19T01:11:02.318Z,54
2016-03-19T01:11:15.506Z,54
2016-03-19T01:13:59.756Z,54
2016-03-19T01:14:13.412Z,54
2016-03-19T01:14:26.848Z,54
2016-03-19T01:14:40.239Z,54
2016-03-19T01:14:54.083Z,54
2016-03-19T01:15:07.973Z,54
2016-03-19T01:15:21.489Z,54
2016-03-19T01:15:35.255Z,54
2016-03-19T01:15:48.645Z,54
2016-03-19T01:16:02.176Z,54
2016-03-19T01:16:15.536Z,54
2016-03-19T01:16:29.144Z,54
2016-03-19T01:16:42.738Z,54
2016-03-19T01:16:56.238Z,54
2016-03-19T01:17:09.550Z,54
2016-03-19T01:17:23.096Z,54
2016-03-19T01:17:36.581Z,54
2016-03-19T01:17:49.893Z,54
2016-03-19T01:18:03.940Z,54
2016-03-19T01:18:17.268Z,54
2016-03-19T01:18:30.722Z,54
2016-03-19T01:18:44.254Z,54
2016-03-19T01:18:57.629Z,54
2016-03-19T01:19:11.050Z,54
2016-03-19T01:19:24.912Z,54
2016-03-19T01:19:38.552Z,54
2016-03-19T01:19:51.912Z,54
2016-03-19T01:20:06.177Z,54
2016-03-19T01:20:22.428Z,54
2016-03-19T01:20:35.819Z,54
2016-03-19T01:20:49.444Z,54
2016-03-19T01:21:02.757Z,54
2016-03-19T01:21:16.225Z,54
2016-03-19T01:21:29.743Z,54
2016-03-19T01:21:43.149Z,54
2016-03-19T01:21:56.540Z,54
2016-03-19T01:22:10.009Z,54
2016-03-19T01:22:23.511Z,54
2016-03-19T01:22:36.807Z,54
2016-03-19T01:22:50.401Z,54
2016-03-19T01:23:03.917Z,54
2016-03-19T01:23:17.229Z,54
2016-03-19T01:23:30.778Z,54
2016-03-19T01:23:44.169Z,54
2016-03-19T01:23:57.622Z,54
2016-03-19T01:24:11.200Z,54
2016-03-19T01:24:24.671Z,54
2016-03-19T01:24:37.999Z,54
2016-03-19T01:24:51.561Z,54
2016-03-19T01:25:04.936Z,54
2016-03-19T01:25:18.296Z,54
2016-03-19T01:25:31.799Z,54
2016-03-19T01:25:45.236Z,54
2016-03-19T01:25:58.580Z,54
2016-03-19T01:26:12.018Z,53
2016-03-19T01:26:25.488Z,53
2016-03-19T01:26:39.051Z,53
2016-03-19T01:26:52.457Z,53
2016-03-19T01:27:06.535Z,53
2016-03-19T01:27:20.066Z,53
2016-03-19T01:27:33.475Z,53
2016-03-19T01:27:46.850Z,53
2016-03-19T01:28:00.287Z,53
2016-03-19T01:28:13.834Z,53
2016-03-19T01:28:27.150Z,53
2016-03-19T01:28:40.603Z,53
2016-03-19T01:28:54.134Z,53
2016-03-19T01:29:07.556Z,53
2016-03-19T01:29:20.978Z,53
2016-03-19T01:29:35.153Z,53
2016-03-19T01:29:48.731Z,53
2016-03-19T01:30:02.043Z,53
2016-03-19T01:30:15.512Z,53
2016-03-19T01:30:28.984Z,53
2016-03-19T01:30:42.968Z,53
2016-03-19T01:30:56.374Z,53
2016-03-19T01:31:09.843Z,53
2016-03-19T01:31:23.423Z,53
2016-03-19T01:31:36.798Z,53
2016-03-19T01:31:50.892Z,53
2016-03-19T01:32:06.704Z,53
2016-03-19T01:45:10.895Z,53
2016-03-19T01:45:24.524Z,53
2016-03-19T01:45:37.946Z,54
2016-03-19T01:45:51.321Z,54
2016-03-19T01:46:04.758Z,54
2016-03-19T01:46:18.274Z,54
2016-03-19T01:46:31.604Z,53
2016-03-19T01:46:45.104Z,53
2016-03-19T01:46:58.588Z,53
2016-03-19T01:47:11.901Z,53
2016-03-19T01:47:25.326Z,53
2016-03-19T01:47:38.779Z,53
2016-03-19T01:47:52.294Z,53
2016-03-19T01:48:05.638Z,53
2016-03-19T01:48:19.154Z,53
2016-03-19T01:48:32.641Z,53
2016-03-19T01:48:46.016Z,54
2016-03-19T01:48:59.547Z,53
2016-03-19T01:49:13.079Z,54
2016-03-19T01:49:27.018Z,54
2016-03-19T01:49:40.409Z,54
2016-03-19T01:49:53.956Z,53
2016-03-19T01:50:07.471Z,54
2016-03-19T01:50:20.862Z,54
2016-03-19T01:50:34.255Z,54
2016-03-19T01:50:47.662Z,54
2016-03-19T01:51:01.146Z,54
2016-03-19T01:51:14.552Z,54
2016-03-19T01:51:27.867Z,54
2016-03-19T01:51:41.382Z,54
2016-03-19T01:51:54.820Z,54
2016-03-19T01:52:08.132Z,54
2016-03-19T01:52:21.789Z,54
2016-03-19T01:52:35.886Z,54
2016-03-19T01:52:49.246Z,54
2016-03-19T01:53:02.761Z,54
2016-03-19T01:53:16.293Z,54
2016-03-19T01:53:29.717Z,54
2016-03-19T01:53:43.795Z,54
2016-03-19T01:53:57.263Z,54
2016-03-19T01:54:10.623Z,54
2016-03-19T01:54:24.235Z,54
2016-03-19T01:54:38.079Z,54
2016-03-19T01:54:51.438Z,54
2016-03-19T01:55:05.016Z,54
2016-03-19T01:55:18.501Z,54
2016-03-19T01:55:31.862Z,54
2016-03-19T01:55:45.347Z,54
2016-03-19T01:55:58.847Z,54
2016-03-19T01:56:12.597Z,54
2016-03-19T01:56:26.240Z,54
2016-03-19T01:56:39.678Z,54
2016-03-19T01:56:53.600Z,54
2016-03-19T01:57:07.209Z,54
2016-03-19T01:57:20.693Z,54
2016-03-19T01:57:34.087Z,54
2016-03-19T01:57:47.728Z,54
2016-03-19T01:58:01.181Z,54
2016-03-19T01:58:14.634Z,54
2016-03-19T01:58:28.058Z,54
2016-03-19T01:58:41.589Z,54
2016-03-19T01:58:54.901Z,54
2016-03-19T01:59:08.433Z,54
2016-03-19T01:59:21.808Z,54
2016-03-19T01:59:35.140Z,54
2016-03-19T01:59:48.671Z,54
2016-03-19T02:00:02.124Z,54
2016-03-19T02:00:15.499Z,54
2016-03-19T02:00:28.923Z,54
2016-03-19T02:00:42.423Z,54
2016-03-19T02:00:55.751Z,54
2016-03-19T02:01:09.220Z,54
2016-03-19T02:01:22.723Z,54
2016-03-19T02:01:36.051Z,54
2016-03-19T02:01:50.848Z,54
2016-03-19T02:02:04.207Z,54
2016-03-19T02:03:11.006Z,54
2016-03-19T02:03:24.415Z,54
2016-03-19T02:03:37.900Z,54
2016-03-19T02:03:51.400Z,54
2016-03-19T02:15:58.120Z,55
2016-03-19T02:16:11.542Z,55
2016-03-19T02:16:24.904Z,55
2016-03-19T02:16:38.341Z,55
2016-03-19T02:16:51.841Z,55
2016-03-19T02:17:05.263Z,55
2016-03-19T02:17:18.575Z,55
2016-03-19T02:17:32.062Z,55
2016-03-19T02:17:45.499Z,55
2016-03-19T02:17:58.827Z,55
2016-03-19T02:18:12.249Z,55
2016-03-19T02:18:25.752Z,55
2016-03-19T02:18:39.284Z,55
2016-03-19T02:18:52.659Z,55
2016-03-19T02:19:06.237Z,55
2016-03-19T02:19:19.549Z,55
2016-03-19T02:19:32.927Z,55
2016-03-19T02:19:46.537Z,55
2016-03-19T02:19:59.958Z,55
2016-03-19T02:20:13.474Z,55
2016-03-19T02:20:26.835Z,55
2016-03-19T02:20:40.226Z,55
2016-03-19T02:20:53.757Z,55
2016-03-19T02:21:07.570Z,55
2016-03-19T02:21:20.976Z,55
2016-03-19T02:21:34.542Z,55
2016-03-19T02:21:47.979Z,55
2016-03-19T02:22:01.307Z,55
2016-03-19T02:22:14.854Z,55
2016-03-19T02:22:28.295Z,55
2016-03-19T02:22:41.576Z,55
2016-03-19T02:22:55.123Z,55
2016-03-19T02:23:08.451Z,55
2016-03-19T02:23:21.951Z,55
2016-03-19T02:23:35.532Z,55
2016-03-19T02:23:48.876Z,55
2016-03-19T02:24:02.235Z,55
2016-03-19T02:24:15.766Z,55
2016-03-19T02:24:29.175Z,55
2016-03-19T02:24:42.503Z,55
2016-03-19T02:24:55.987Z,55
2016-03-19T02:25:09.425Z,54
2016-03-19T02:25:22.771Z,54
2016-03-19T02:25:36.287Z,54
2016-03-19T02:25:49.646Z,55
2016-03-19T02:26:03.131Z,55
2016-03-19T02:26:16.584Z,55
2016-03-19T02:26:29.915Z,55
2016-03-19T02:26:44.227Z,55
2016-03-19T02:26:57.634Z,55
2016-03-19T02:27:11.149Z,55
2016-03-19T02:27:24.652Z,55
2016-03-19T02:27:38.230Z,55
2016-03-19T02:27:51.559Z,55
2016-03-19T02:28:05.012Z,55
2016-03-19T02:28:18.512Z,55
2016-03-19T02:28:31.904Z,55
2016-03-19T02:28:45.295Z,55
2016-03-19T02:28:58.717Z,55
2016-03-19T02:29:12.248Z,55
2016-03-19T02:29:25.594Z,55
2016-03-19T02:29:38.969Z,55
2016-03-19T02:29:52.484Z,55
2016-03-19T02:30:05.813Z,55
2016-03-19T02:30:19.203Z,55
2016-03-19T02:30:32.706Z,55
2016-03-19T02:30:46.112Z,55
2016-03-19T02:30:59.425Z,55
2016-03-19T02:31:13.550Z,55
2016-03-19T02:31:26.990Z,55
2016-03-19T02:31:41.162Z,55
2016-03-19T02:31:55.069Z,55
2016-03-19T02:32:08.600Z,54
2016-03-19T02:32:22.022Z,54
2016-03-19T02:32:35.415Z,55
2016-03-19T02:32:48.853Z,55
2016-03-19T02:33:58.340Z,54
2016-03-19T02:34:11.684Z,54
2016-03-19T02:34:25.109Z,54
2016-03-19T02:34:38.609Z,54
2016-03-19T02:46:46.156Z,55
2016-03-19T02:46:59.578Z,55
2016-03-19T02:47:12.953Z,55
2016-03-19T02:47:26.502Z,55
2016-03-19T02:47:39.924Z,55
2016-03-19T02:47:53.487Z,55
2016-03-19T02:48:06.987Z,55
2016-03-19T02:48:20.580Z,55
2016-03-19T02:48:34.458Z,55
2016-03-19T02:48:47.880Z,55
2016-03-19T02:49:01.380Z,55
2016-03-19T02:49:14.943Z,55
2016-03-19T02:49:28.430Z,55
2016-03-19T02:49:41.774Z,55
2016-03-19T02:49:55.821Z,55
2016-03-19T02:50:09.289Z,55
2016-03-19T02:50:22.680Z,55
2016-03-19T02:50:36.183Z,55
2016-03-19T02:50:49.683Z,55
2016-03-19T02:51:03.074Z,55
2016-03-19T02:51:16.636Z,55
2016-03-19T02:51:30.138Z,55
2016-03-19T02:51:43.482Z,55
2016-03-19T02:51:56.873Z,55
2016-03-19T02:52:10.419Z,55
2016-03-19T02:52:23.859Z,55
2016-03-19T02:52:37.281Z,55
2016-03-19T02:52:50.859Z,55
2016-03-19T02:53:04.156Z,55
2016-03-19T02:53:17.609Z,55
2016-03-19T02:53:31.143Z,55
2016-03-19T02:53:44.503Z,55
2016-03-19T02:53:57.909Z,55
2016-03-19T02:54:11.440Z,55
2016-03-19T02:54:24.849Z,55
2016-03-19T02:54:38.177Z,55
2016-03-19T02:54:51.771Z,55
2016-03-19T02:55:05.193Z,55
2016-03-19T02:55:18.584Z,55
2016-03-19T02:55:32.009Z,55
2016-03-19T02:55:45.555Z,55
2016-03-19T02:55:58.993Z,55
2016-03-19T02:56:12.305Z,55
2016-03-19T02:56:25.870Z,55
2016-03-19T02:56:39.370Z,55
2016-03-19T02:56:52.714Z,55
2016-03-19T02:57:06.182Z,55
2016-03-19T02:57:19.745Z,55
2016-03-19T02:57:33.107Z,55
2016-03-19T02:57:46.889Z,55
2016-03-19T02:58:00.607Z,55
2016-03-19T02:58:13.967Z,55
2016-03-19T02:58:27.517Z,55
2016-03-19T02:58:40.892Z,55
2016-03-19T02:58:54.657Z,55
2016-03-19T02:59:08.188Z,55
2016-03-19T02:59:22.032Z,55
2016-03-19T02:59:35.378Z,55
2016-03-19T02:59:48.815Z,55
2016-03-19T03:00:02.362Z,55
2016-03-19T03:00:15.784Z,55
2016-03-19T03:00:29.476Z,55
2016-03-19T03:00:43.585Z,55
2016-03-19T03:00:56.898Z,55
2016-03-19T03:01:10.898Z,55
2016-03-19T03:01:24.337Z,55
2016-03-19T03:01:39.071Z,55
2016-03-19T03:01:52.978Z,55
2016-03-19T03:02:06.306Z,55
2016-03-19T03:02:19.743Z,55
2016-03-19T03:02:33.824Z,55
2016-03-19T03:02:47.231Z,55
2016-03-19T03:03:00.793Z,55
2016-03-19T03:03:14.371Z,55
2016-03-19T03:03:27.764Z,55
2016-03-19T03:03:41.092Z,55
2016-03-19T03:04:45.611Z,55
2016-03-19T03:04:59.111Z,55
2016-03-19T03:05:12.454Z,55
2016-03-19T03:05:25.864Z,55
2016-03-19T03:17:32.943Z,55
2016-03-19T03:17:46.458Z,54
2016-03-19T03:17:59.755Z,54
2016-03-19T03:18:13.193Z,54
2016-03-19T03:18:26.741Z,54
2016-03-19T03:18:40.070Z,54
2016-03-19T03:18:54.132Z,54
2016-03-19T03:19:07.538Z,54
2016-03-19T03:19:21.538Z,54
2016-03-19T03:19:35.292Z,54
2016-03-19T03:19:48.636Z,54
2016-03-19T03:20:02.136Z,54
2016-03-19T03:20:15.542Z,54
2016-03-19T03:20:28.982Z,54
2016-03-19T03:20:42.497Z,54
2016-03-19T03:20:55.888Z,54
2016-03-19T03:21:09.216Z,54
2016-03-19T03:21:22.638Z,54
2016-03-19T03:21:36.093Z,54
2016-03-19T03:21:49.499Z,54
2016-03-19T03:22:02.828Z,54
2016-03-19T03:22:16.328Z,54
2016-03-19T03:22:29.768Z,54
2016-03-19T03:22:43.174Z,54
2016-03-19T03:22:56.565Z,54
2016-03-19T03:23:10.127Z,54
2016-03-19T03:23:23.443Z,54
2016-03-19T03:23:37.130Z,54
2016-03-19T03:24:50.071Z,54
2016-03-19T03:25:03.368Z,54
2016-03-19T03:25:16.743Z,54
2016-03-19T03:25:30.167Z,54
2016-03-19T03:25:43.698Z,54
2016-03-19T03:25:57.135Z,54
2016-03-19T03:26:10.479Z,54
2016-03-19T03:26:23.857Z,54
2016-03-19T03:26:37.420Z,54
2016-03-19T03:26:50.763Z,54
2016-03-19T03:27:04.217Z,54
2016-03-19T03:27:17.826Z,54
2016-03-19T03:27:31.173Z,54
2016-03-19T03:27:45.079Z,54
2016-03-19T03:27:58.548Z,54
2016-03-19T03:28:12.298Z,53
2016-03-19T03:28:25.722Z,54
2016-03-19T03:28:39.550Z,54
2016-03-19T03:28:52.878Z,54
2016-03-19T03:29:06.331Z,54
2016-03-19T03:29:19.987Z,54
2016-03-19T03:29:33.303Z,54
2016-03-19T03:29:46.725Z,54
2016-03-19T03:30:00.193Z,54
2016-03-19T03:30:13.584Z,53
2016-03-19T03:30:26.946Z,53
2016-03-19T03:30:41.196Z,53
2016-03-19T03:30:54.587Z,53
2016-03-19T03:31:07.946Z,53
2016-03-19T03:31:21.431Z,53
2016-03-19T03:31:34.856Z,53
2016-03-19T03:31:48.965Z,53
2016-03-19T03:32:02.371Z,53
2016-03-19T03:32:15.746Z,53
2016-03-19T03:32:30.015Z,53
2016-03-19T03:32:43.437Z,53
2016-03-19T03:32:56.812Z,53
2016-03-19T03:33:10.327Z,53
2016-03-19T03:33:23.751Z,53
2016-03-19T03:33:37.142Z,53
2016-03-19T03:33:50.595Z,53
2016-03-19T03:34:04.095Z,53
2016-03-19T03:34:17.579Z,53
2016-03-19T03:34:30.895Z,53
2016-03-19T03:34:44.442Z,53
2016-03-19T03:34:57.864Z,53
2016-03-19T03:35:11.379Z,53
2016-03-19T03:35:24.787Z,53
2016-03-19T03:35:38.319Z,53
2016-03-19T03:35:51.647Z,53
2016-03-19T03:36:05.147Z,53
2016-03-19T03:36:18.647Z,53
2016-03-19T03:48:22.773Z,53
2016-03-19T03:48:36.338Z,53
2016-03-19T03:48:49.776Z,53
2016-03-19T03:49:03.119Z,53
2016-03-19T03:49:16.572Z,53
2016-03-19T03:49:30.028Z,53
2016-03-19T03:49:43.403Z,53
2016-03-19T03:49:56.793Z,53
2016-03-19T03:50:10.309Z,53
2016-03-19T03:50:23.688Z,53
2016-03-19T03:50:37.219Z,53
2016-03-19T03:50:50.719Z,53
2016-03-19T03:51:04.078Z,53
2016-03-19T03:51:17.547Z,53
2016-03-19T03:51:31.002Z,53
2016-03-19T03:51:44.377Z,53
2016-03-19T03:51:57.799Z,53
2016-03-19T03:52:11.284Z,53
2016-03-19T03:52:24.568Z,53
2016-03-19T03:52:38.021Z,53
2016-03-19T03:52:51.646Z,53
2016-03-19T03:53:05.005Z,53
2016-03-19T03:53:18.396Z,53
2016-03-19T03:53:31.883Z,53
2016-03-19T03:53:45.305Z,53
2016-03-19T03:53:58.633Z,53
2016-03-19T03:54:12.133Z,53
2016-03-19T03:54:25.463Z,53
2016-03-19T03:55:30.013Z,53
2016-03-19T03:55:43.982Z,53
2016-03-19T03:55:57.404Z,53
2016-03-19T03:56:11.466Z,53
2016-03-19T03:56:24.906Z,53
2016-03-19T03:56:38.250Z,53
2016-03-19T03:56:51.672Z,53
2016-03-19T03:57:05.172Z,53
2016-03-19T03:57:19.265Z,53
2016-03-19T03:57:33.316Z,53
2016-03-19T03:57:46.801Z,53
2016-03-19T03:58:00.160Z,53
2016-03-19T03:58:13.676Z,53
2016-03-19T03:58:27.115Z,53
2016-03-19T03:58:40.459Z,53
2016-03-19T03:58:53.959Z,53
2016-03-19T03:59:07.459Z,53
2016-03-19T03:59:20.771Z,53
2016-03-19T03:59:34.680Z,53
2016-03-19T03:59:48.289Z,53
2016-03-19T04:00:01.617Z,53
2016-03-19T04:00:15.023Z,53
2016-03-19T04:00:28.511Z,53
2016-03-19T04:00:41.854Z,53
2016-03-19T04:00:55.339Z,53
2016-03-19T04:01:08.667Z,53
2016-03-19T04:01:22.104Z,53
2016-03-19T04:01:35.639Z,53
2016-03-19T04:01:50.404Z,53
2016-03-19T04:02:03.811Z,53
2016-03-19T04:02:17.326Z,53
2016-03-19T04:02:30.798Z,53
2016-03-19T04:02:44.110Z,53
2016-03-19T04:02:57.782Z,53
2016-03-19T04:03:11.157Z,53
2016-03-19T04:03:24.456Z,53
2016-03-19T04:03:37.925Z,53
2016-03-19T04:03:51.441Z,53
2016-03-19T04:04:04.894Z,53
2016-03-19T04:04:18.206Z,53
2016-03-19T04:04:31.757Z,53
2016-03-19T04:04:45.257Z,53
2016-03-19T04:04:58.554Z,53
2016-03-19T04:05:12.038Z,53
2016-03-19T04:05:25.509Z,53
2016-03-19T04:05:38.947Z,53
2016-03-19T04:05:52.337Z,53
2016-03-19T04:06:05.837Z,53
2016-03-19T04:06:19.134Z,53
2016-03-19T04:06:32.667Z,53
2016-03-19T04:06:46.074Z,53
2016-03-19T04:06:59.386Z,53
2016-03-19T04:07:12.886Z,53
2016-03-19T04:19:21.091Z,53
2016-03-19T04:19:34.500Z,53
2016-03-19T04:19:47.953Z,53
2016-03-19T04:20:01.469Z,53
2016-03-19T04:20:14.875Z,53
2016-03-19T04:20:28.284Z,53
2016-03-19T04:20:41.753Z,53
2016-03-19T04:20:55.316Z,53
2016-03-19T04:21:08.769Z,53
2016-03-19T04:21:22.081Z,53
2016-03-19T04:21:35.583Z,53
2016-03-19T04:21:49.036Z,53
2016-03-19T04:22:02.380Z,53
2016-03-19T04:22:15.802Z,53
2016-03-19T04:22:29.304Z,53
2016-03-19T04:22:42.632Z,53
2016-03-19T04:22:56.038Z,53
2016-03-19T04:23:09.538Z,53
2016-03-19T04:23:22.913Z,53
2016-03-19T04:23:36.463Z,53
2016-03-19T04:23:49.823Z,53
2016-03-19T04:24:03.229Z,53
2016-03-19T04:24:16.760Z,53
2016-03-19T04:24:30.794Z,53
2016-03-19T04:24:44.185Z,53
2016-03-19T04:24:57.701Z,53
2016-03-19T04:25:11.013Z,53
2016-03-19T04:25:24.406Z,53
2016-03-19T04:26:27.988Z,53
2016-03-19T04:26:41.347Z,53
2016-03-19T04:26:54.722Z,53
2016-03-19T04:27:08.191Z,53
2016-03-19T04:27:21.629Z,53
2016-03-19T04:27:35.084Z,53
2016-03-19T04:27:48.646Z,53
2016-03-19T04:28:01.943Z,53
2016-03-19T04:28:15.381Z,53
2016-03-19T04:28:28.899Z,53
2016-03-19T04:28:42.243Z,53
2016-03-19T04:28:55.680Z,53
2016-03-19T04:29:09.149Z,53
2016-03-19T04:29:22.555Z,53
2016-03-19T04:29:35.948Z,53
2016-03-19T04:29:49.448Z,53
2016-03-19T04:30:02.807Z,53
2016-03-19T04:30:16.276Z,53
2016-03-19T04:30:29.779Z,53
2016-03-19T04:30:43.139Z,53
2016-03-19T04:30:56.545Z,53
2016-03-19T04:31:10.092Z,53
2016-03-19T04:31:23.420Z,53
2016-03-19T04:31:36.798Z,53
2016-03-19T04:31:51.048Z,53
2016-03-19T04:32:04.376Z,53
2016-03-19T04:32:17.813Z,53
2016-03-19T04:32:31.347Z,53
2016-03-19T04:32:44.753Z,53
2016-03-19T04:32:58.128Z,53
2016-03-19T04:33:11.644Z,53
2016-03-19T04:33:24.959Z,53
2016-03-19T04:33:38.381Z,53
2016-03-19T04:33:52.303Z,53
2016-03-19T04:34:05.709Z,53
2016-03-19T04:34:19.475Z,53
2016-03-19T04:34:32.977Z,53
2016-03-19T04:34:46.367Z,53
2016-03-19T04:34:59.711Z,53
2016-03-19T04:35:13.227Z,53
2016-03-19T04:35:26.965Z,53
2016-03-19T04:35:40.262Z,53
2016-03-19T04:35:53.887Z,53
2016-03-19T04:36:07.324Z,53
2016-03-19T04:36:21.059Z,53
2016-03-19T04:36:34.498Z,53
2016-03-19T04:36:47.826Z,53
2016-03-19T04:37:01.358Z,53
2016-03-19T04:37:14.717Z,53
2016-03-19T04:37:28.033Z,53
2016-03-19T04:37:41.579Z,53
2016-03-19T04:37:55.048Z,53
2016-03-19T04:50:02.847Z,53
2016-03-19T04:50:16.222Z,53
2016-03-19T04:50:29.708Z,53
2016-03-19T04:50:43.224Z,53
2016-03-19T04:50:56.693Z,53
2016-03-19T04:51:10.052Z,53
2016-03-19T04:51:23.599Z,53
2016-03-19T04:51:37.102Z,53
2016-03-19T04:51:50.461Z,53
2016-03-19T04:52:03.992Z,53
2016-03-19T04:52:17.477Z,53
2016-03-19T04:52:30.854Z,53
2016-03-19T04:52:44.307Z,53
2016-03-19T04:52:57.666Z,53
2016-03-19T04:53:11.244Z,53
2016-03-19T04:53:24.716Z,53
2016-03-19T04:53:38.201Z,53
2016-03-19T04:53:51.716Z,53
2016-03-19T04:54:05.607Z,53
2016-03-19T04:54:18.997Z,53
2016-03-19T04:54:32.485Z,53
2016-03-19T04:54:46.047Z,53
2016-03-19T04:54:59.407Z,53
2016-03-19T04:55:13.344Z,53
2016-03-19T04:55:26.893Z,53
2016-03-19T04:55:40.237Z,53
2016-03-19T04:55:53.768Z,53
2016-03-19T04:56:07.159Z,53
2016-03-19T04:56:20.549Z,53
2016-03-19T04:57:25.571Z,53
2016-03-19T04:57:39.024Z,53
2016-03-19T04:57:52.368Z,53
2016-03-19T04:58:05.805Z,53
2016-03-19T04:58:19.383Z,53
2016-03-19T04:58:32.714Z,53
2016-03-19T04:58:46.198Z,53
2016-03-19T04:58:59.698Z,53
2016-03-19T04:59:13.026Z,53
2016-03-19T04:59:26.467Z,53
2016-03-19T04:59:39.888Z,53
2016-03-19T04:59:53.388Z,53
2016-03-19T05:00:06.935Z,53
2016-03-19T05:00:20.357Z,53
2016-03-19T05:00:33.954Z,53
2016-03-19T05:00:47.516Z,53
2016-03-19T05:01:00.876Z,53
2016-03-19T05:01:14.329Z,53
2016-03-19T05:01:27.832Z,53
2016-03-19T05:01:42.723Z,53
2016-03-19T05:01:56.191Z,53
2016-03-19T05:02:09.723Z,53
2016-03-19T05:02:24.835Z,53
2016-03-19T05:02:38.272Z,53
2016-03-19T05:02:51.710Z,53
2016-03-19T05:03:05.241Z,53
2016-03-19T05:03:18.741Z,53
2016-03-19T05:03:32.087Z,53
2016-03-19T05:03:45.696Z,53
2016-03-19T05:03:59.196Z,53
2016-03-19T05:04:12.603Z,53
2016-03-19T05:04:26.120Z,53
2016-03-19T05:04:39.589Z,53
2016-03-19T05:04:53.042Z,53
2016-03-19T05:05:06.495Z,53
2016-03-19T05:05:19.948Z,53
2016-03-19T05:05:33.515Z,53
2016-03-19T05:05:46.874Z,54
2016-03-19T05:06:00.343Z,54
2016-03-19T05:06:13.905Z,54
2016-03-19T05:06:27.298Z,54
2016-03-19T05:06:40.720Z,54
2016-03-19T05:06:54.251Z,54
2016-03-19T05:07:07.689Z,54
2016-03-19T05:07:21.064Z,54
2016-03-19T05:07:34.613Z,54
2016-03-19T05:07:48.050Z,54
2016-03-19T05:08:01.456Z,54
2016-03-19T05:08:14.909Z,54
2016-03-19T05:08:28.475Z,54
2016-03-19T05:08:42.022Z,54
2016-03-19T05:08:55.397Z,54
2016-03-19T05:21:08.055Z,53
2016-03-19T05:21:21.649Z,53
2016-03-19T05:21:35.119Z,53
2016-03-19T05:21:48.463Z,53
2016-03-19T05:22:02.072Z,53
2016-03-19T05:22:15.541Z,53
2016-03-19T05:22:28.982Z,54
2016-03-19T05:22:42.482Z,53
2016-03-19T05:22:55.919Z,54
2016-03-19T05:23:09.497Z,53
2016-03-19T05:23:22.966Z,53
2016-03-19T05:23:36.359Z,53
2016-03-19T05:23:50.421Z,53
2016-03-19T05:24:03.906Z,53
2016-03-19T05:24:17.327Z,53
2016-03-19T05:24:31.675Z,53
2016-03-19T05:24:45.206Z,53
2016-03-19T05:24:58.613Z,53
2016-03-19T05:25:12.128Z,53
2016-03-19T05:25:25.615Z,53
2016-03-19T05:25:38.974Z,53
2016-03-19T05:25:53.005Z,53
2016-03-19T05:26:06.458Z,53
2016-03-19T05:26:19.849Z,53
2016-03-19T05:26:33.398Z,53
2016-03-19T05:26:46.929Z,54
2016-03-19T05:27:00.492Z,54
2016-03-19T05:27:13.992Z,53
2016-03-19T05:28:25.451Z,54
2016-03-19T05:28:38.857Z,53
2016-03-19T05:28:52.326Z,53
2016-03-19T05:29:05.857Z,53
2016-03-19T05:29:19.310Z,54
2016-03-19T05:29:32.688Z,54
2016-03-19T05:29:46.219Z,54
2016-03-19T05:29:59.704Z,54
2016-03-19T05:30:13.110Z,54
2016-03-19T05:30:26.581Z,54
2016-03-19T05:30:40.237Z,53
2016-03-19T05:30:53.565Z,54
2016-03-19T05:31:06.987Z,54
2016-03-19T05:31:20.518Z,54